Time;durP1;ratioP1;P1;durP2;ratioP2;P2;SDS_P1;SDS_P2;PMS_P1;PMS_P2;Temp;Humidity;BMP_temperature;BMP_pressure;BME280_temperature;BME280_humidity;BME280_pressure;Samples;Min_cycle;Max_cycle;Signal;HPM_P1;HPM_P2
2023/06/21 00:00:15;;;;;;;24.73;22.13;;;19.70;99.90;;;;;;5000015;28;90505;-44
2023/06/21 00:02:44;;;;;;;24.95;21.85;;;19.70;99.90;;;;;;5000672;28;89841;-44
2023/06/21 00:05:11;;;;;;;24.05;21.55;;;19.60;99.90;;;;;;5000845;28;90334;-42
2023/06/21 00:07:40;;;;;;;23.52;21.15;;;19.60;99.90;;;;;;5000865;28;90763;-44
2023/06/21 00:10:09;;;;;;;24.63;22.25;;;19.60;99.90;;;;;;5000379;28;90685;-47
2023/06/21 00:12:35;;;;;;;23.60;21.08;;;19.60;99.90;;;;;;5001061;28;90941;-44
2023/06/21 00:15:01;;;;;;;22.88;20.73;;;19.60;99.90;;;;;;5000471;28;88278;-45
2023/06/21 00:17:27;;;;;;;24.00;20.63;;;19.50;99.90;;;;;;5000007;28;90395;-45
2023/06/21 00:19:56;;;;;;;21.70;19.60;;;19.60;99.90;;;;;;5000637;28;89825;-45
2023/06/21 00:22:22;;;;;;;21.92;19.83;;;19.60;99.90;;;;;;5000532;28;89611;-41
2023/06/21 00:24:52;;;;;;;22.08;19.88;;;19.50;99.90;;;;;;5000694;28;88967;-41
2023/06/21 00:27:18;;;;;;;20.85;18.60;;;19.50;99.90;;;;;;5000262;28;90032;-43
2023/06/21 00:29:44;;;;;;;21.52;19.42;;;19.50;99.90;;;;;;5000740;28;89874;-42
2023/06/21 00:32:09;;;;;;;21.85;19.75;;;19.50;99.90;;;;;;4999297;28;89816;-45
2023/06/21 00:34:35;;;;;;;20.25;18.00;;;19.50;99.90;;;;;;5000051;28;90426;-46
2023/06/21 00:37:04;;;;;;;19.65;17.83;;;19.60;99.90;;;;;;5000430;28;89485;-42
2023/06/21 00:39:30;;;;;;;27.38;20.20;;;19.50;99.90;;;;;;5000430;28;90856;-44
2023/06/21 00:41:56;;;;;;;22.75;18.75;;;19.50;99.90;;;;;;4999435;28;89416;-43
2023/06/21 00:44:21;;;;;;;21.00;18.90;;;19.50;99.90;;;;;;5000396;28;88105;-43
2023/06/21 00:46:49;;;;;;;21.08;19.00;;;19.50;99.90;;;;;;4999846;28;90291;-45
2023/06/21 00:49:15;;;;;;;21.70;19.53;;;19.50;99.90;;;;;;4999563;28;90430;-43
2023/06/21 00:51:42;;;;;;;20.98;18.83;;;19.50;99.90;;;;;;4999634;28;89590;-44
2023/06/21 00:54:15;;;;;;;20.47;18.37;;;19.40;99.90;;;;;;4999908;28;89944;-42
2023/06/21 00:56:42;;;;;;;20.17;18.17;;;19.40;99.90;;;;;;4999848;28;90120;-45
2023/06/21 00:59:09;;;;;;;22.45;18.33;;;19.40;99.90;;;;;;4999762;28;90718;-43
2023/06/21 01:01:37;;;;;;;20.30;18.25;;;19.50;99.90;;;;;;4999230;28;90197;-43
2023/06/21 01:04:04;;;;;;;18.35;16.58;;;19.40;99.90;;;;;;4999685;28;88564;-44
2023/06/21 01:06:48;;;;;;;19.88;17.67;;;19.40;99.90;;;;;;4999722;28;90193;-43
2023/06/21 01:09:40;;;;;;;18.25;16.55;;;19.40;99.90;;;;;;4998824;28;91001;-40
2023/06/21 01:12:30;;;;;;;22.48;20.17;;;19.40;99.90;;;;;;5000194;28;89309;-44
2023/06/21 01:15:12;;;;;;;21.77;19.42;;;19.40;99.90;;;;;;4988510;28;89372;-48
2023/06/21 01:17:40;;;;;;;21.17;18.42;;;19.30;99.90;;;;;;4999307;28;91017;-45
2023/06/21 01:20:13;;;;;;;;;;;19.30;99.90;;;;;;5000048;28;89883;-43
2023/06/21 01:23:02;;;;;;;20.85;18.20;;;19.20;99.90;;;;;;5001136;28;90111;-46
2023/06/21 01:25:46;;;;;;;21.25;19.15;;;19.20;99.90;;;;;;4999264;28;90001;-45
2023/06/21 01:28:15;;;;;;;21.58;19.38;;;19.10;99.90;;;;;;4999389;28;89279;-42
2023/06/21 01:30:42;;;;;;;23.75;19.55;;;19.10;99.90;;;;;;4999178;28;89616;-39
2023/06/21 01:33:09;;;;;;;25.33;21.47;;;19.10;99.90;;;;;;4999685;28;90552;-40
2023/06/21 01:35:35;;;;;;;22.63;20.23;;;19.10;99.90;;;;;;4999136;28;88142;-41
2023/06/21 01:38:01;;;;;;;22.25;18.75;;;19.00;99.90;;;;;;4999641;28;90153;-40
2023/06/21 01:40:27;;;;;;;21.58;19.25;;;19.00;99.90;;;;;;4998914;28;89832;-40
2023/06/21 01:42:52;;;;;;;22.77;20.42;;;19.00;99.90;;;;;;4998975;28;89332;-45
2023/06/21 01:45:23;;;;;;;22.67;19.88;;;19.10;99.90;;;;;;4998978;28;88347;-43
2023/06/21 01:47:49;;;;;;;20.70;18.73;;;19.00;99.90;;;;;;4999680;28;89911;-47
2023/06/21 01:50:17;;;;;;;24.10;21.65;;;19.00;99.90;;;;;;4998211;28;92540;-45
2023/06/21 01:52:44;;;;;;;32.08;21.40;;;18.90;99.90;;;;;;4999396;28;90424;-43
2023/06/21 01:55:10;;;;;;;26.67;21.45;;;18.90;99.90;;;;;;4998737;28;88778;-44
2023/06/21 01:57:37;;;;;;;26.92;22.80;;;18.90;99.90;;;;;;4999222;28;89642;-43
2023/06/21 02:00:26;;;;;;;26.20;23.48;;;18.80;99.90;;;;;;4999168;28;90245;-41
2023/06/21 02:02:59;;;;;;;27.73;24.88;;;18.80;99.90;;;;;;4998994;28;89689;-41
2023/06/21 02:05:25;;;;;;;23.58;21.33;;;18.80;99.90;;;;;;4998364;28;89506;-45
2023/06/21 02:07:54;;;;;;;26.48;23.50;;;18.80;99.90;;;;;;4999375;28;90047;-43
2023/06/21 02:10:20;;;;;;;24.57;22.07;;;18.80;99.90;;;;;;4998173;28;90021;-45
2023/06/21 02:12:52;;;;;;;25.70;23.08;;;18.80;99.90;;;;;;4998345;28;89626;-47
2023/06/21 02:15:18;;;;;;;25.67;22.98;;;18.80;99.90;;;;;;4998495;28;89635;-45
2023/06/21 02:17:51;;;;;;;26.38;23.60;;;18.80;99.90;;;;;;4998680;28;90178;-44
2023/06/21 02:20:19;;;;;;;28.67;25.67;;;18.80;99.90;;;;;;4998314;28;89509;-42
2023/06/21 02:22:46;;;;;;;26.45;23.67;;;18.80;99.90;;;;;;4998230;28;89424;-41
2023/06/21 02:25:13;;;;;;;25.23;22.70;;;18.80;99.90;;;;;;4998281;28;88303;-44
2023/06/21 02:27:39;;;;;;;29.67;24.43;;;18.70;99.90;;;;;;4999302;28;90208;-44
2023/06/21 02:30:07;;;;;;;29.25;26.23;;;18.70;99.90;;;;;;4998120;28;89403;-44
2023/06/21 02:32:34;;;;;;;26.50;22.08;;;18.70;99.90;;;;;;4985000;28;89919;-47
2023/06/21 02:34:59;;;;;;;32.90;27.88;;;18.70;99.90;;;;;;4997841;28;90129;-43
2023/06/21 02:37:28;;;;;;;32.85;27.08;;;18.70;99.90;;;;;;4997656;28;90175;-46
2023/06/21 02:39:54;;;;;;;30.60;26.42;;;18.70;99.90;;;;;;4996599;28;90759;-44
2023/06/21 02:42:20;;;;;;;35.88;30.40;;;18.70;99.90;;;;;;4997501;28;90534;-44
2023/06/21 02:44:45;;;;;;;33.00;28.95;;;18.70;99.90;;;;;;4995973;28;88322;-45
2023/06/21 02:47:11;;;;;;;33.33;29.67;;;18.70;99.90;;;;;;4997804;28;89973;-43
2023/06/21 02:49:37;;;;;;;32.65;29.10;;;18.70;99.90;;;;;;4996635;28;88705;-43
2023/06/21 02:52:06;;;;;;;35.30;29.05;;;18.70;99.90;;;;;;4997518;28;90300;-46
2023/06/21 02:54:32;;;;;;;38.70;30.88;;;18.70;99.90;;;;;;4996829;28;89514;-48
2023/06/21 02:56:58;;;;;;;40.47;31.85;;;18.70;99.90;;;;;;4998207;28;90236;-45
2023/06/21 02:59:23;;;;;;;41.50;32.22;;;18.60;99.90;;;;;;4995794;28;90185;-47
2023/06/21 03:01:49;;;;;;;39.42;32.30;;;18.60;99.90;;;;;;4998057;28;90052;-43
2023/06/21 03:04:16;;;;;;;41.97;32.40;;;18.60;99.90;;;;;;4995884;28;89156;-42
2023/06/21 03:06:42;;;;;;;41.45;33.08;;;18.60;99.90;;;;;;4996836;28;91029;-43
2023/06/21 03:09:08;;;;;;;39.00;31.60;;;18.50;99.90;;;;;;4996344;28;89515;-43
2023/06/21 03:11:34;;;;;;;37.85;33.85;;;18.50;99.90;;;;;;4996905;28;89930;-46
2023/06/21 03:13:59;;;;;;;40.85;32.50;;;18.50;99.90;;;;;;4996121;28;87887;-46
2023/06/21 03:16:25;;;;;;;42.90;34.97;;;18.40;99.90;;;;;;4999478;28;90506;-41
2023/06/21 03:18:51;;;;;;;38.53;31.90;;;18.50;99.90;;;;;;5000248;28;90082;-44
2023/06/21 03:21:16;;;;;;;41.75;33.97;;;18.40;99.90;;;;;;5000724;28;89473;-43
2023/06/21 03:23:43;;;;;;;40.33;33.67;;;18.50;99.90;;;;;;5000015;28;88868;-47
2023/06/21 03:26:08;;;;;;;34.75;30.25;;;18.40;99.90;;;;;;5001188;28;89048;-46
2023/06/21 03:28:34;;;;;;;40.63;32.95;;;18.40;99.90;;;;;;5000624;28;90380;-43
2023/06/21 03:30:59;;;;;;;40.22;33.15;;;18.30;99.90;;;;;;5001187;28;90923;-46
2023/06/21 03:33:25;;;;;;;48.00;32.15;;;18.30;99.90;;;;;;4991559;28;90274;-42
2023/06/21 03:35:51;;;;;;;37.00;31.35;;;18.40;99.90;;;;;;4999999;28;90732;-42
2023/06/21 03:38:17;;;;;;;39.58;32.20;;;18.30;99.90;;;;;;5000740;28;90570;-43
2023/06/21 03:40:43;;;;;;;39.90;32.58;;;18.40;99.90;;;;;;5001665;28;88556;-42
2023/06/21 03:43:09;;;;;;;47.90;31.95;;;18.40;99.90;;;;;;5000566;28;89541;-47
2023/06/21 03:45:35;;;;;;;42.58;35.17;;;18.30;99.90;;;;;;5001148;28;90218;-43
2023/06/21 03:48:05;;;;;;;40.80;32.03;;;18.30;99.90;;;;;;5000493;28;90237;-40
2023/06/21 03:50:34;;;;;;;44.22;36.28;;;18.40;99.90;;;;;;5000434;28;89484;-45
2023/06/21 03:53:00;;;;;;;39.88;32.60;;;18.40;99.90;;;;;;5000344;28;90289;-44
2023/06/21 03:55:25;;;;;;;38.90;33.08;;;18.40;99.90;;;;;;5000682;28;88616;-44
2023/06/21 03:57:51;;;;;;;42.03;34.65;;;18.30;99.90;;;;;;5000010;28;90064;-46
2023/06/21 04:00:17;;;;;;;42.53;36.97;;;18.40;99.90;;;;;;5000519;28;89544;-39
2023/06/21 04:02:44;;;;;;;42.08;36.63;;;18.40;99.90;;;;;;5000906;28;88262;-40
2023/06/21 04:05:10;;;;;;;39.92;32.92;;;18.40;99.90;;;;;;4999578;28;90152;-45
2023/06/21 04:07:36;;;;;;;43.97;35.80;;;18.40;99.90;;;;;;5000916;28;89731;-43
2023/06/21 04:10:02;;;;;;;42.05;33.70;;;18.40;99.90;;;;;;5001287;28;90016;-43
2023/06/21 04:12:29;;;;;;;40.05;33.35;;;18.50;99.90;;;;;;4999926;28;89976;-44
2023/06/21 04:14:55;;;;;;;40.05;32.10;;;18.40;99.90;;;;;;5000369;28;90634;-41
2023/06/21 04:17:20;;;;;;;40.05;34.17;;;18.50;99.90;;;;;;5000043;28;90702;-43
2023/06/21 04:19:46;;;;;;;42.35;33.55;;;18.50;99.90;;;;;;4998671;28;90868;-44
2023/06/21 04:22:11;;;;;;;36.70;32.35;;;18.50;99.90;;;;;;5000513;28;88202;-42
2023/06/21 04:24:37;;;;;;;41.72;33.53;;;18.50;99.90;;;;;;4999754;28;89577;-42
2023/06/21 04:27:03;;;;;;;40.92;35.78;;;18.50;99.90;;;;;;4999878;28;90042;-44
2023/06/21 04:29:29;;;;;;;40.53;35.05;;;18.50;99.90;;;;;;4999532;28;90295;-41
2023/06/21 04:34:50;;;;;;;38.97;34.47;;;18.60;99.90;;;;;;4959173;28;90316;-36
2023/06/21 04:37:18;;;;;;;40.95;34.80;;;18.70;99.90;;;;;;4959602;28;89801;-38
2023/06/21 04:39:43;;;;;;;41.17;34.55;;;18.70;99.90;;;;;;4959681;28;89840;-36
2023/06/21 04:42:09;;;;;;;41.65;36.30;;;18.80;99.90;;;;;;4959895;28;90102;-33
2023/06/21 04:44:35;;;;;;;40.90;32.95;;;18.80;99.90;;;;;;4959896;28;90342;-33
2023/06/21 04:47:01;;;;;;;42.28;35.53;;;18.80;99.90;;;;;;4959955;28;89161;-34
2023/06/21 04:49:26;;;;;;;42.17;35.13;;;18.80;99.90;;;;;;4959687;28;91689;-34
2023/06/21 04:51:57;;;;;;;40.65;35.22;;;18.90;99.90;;;;;;4959892;28;88552;-36
2023/06/21 04:54:24;;;;;;;43.95;35.58;;;18.90;99.90;;;;;;4959810;28;90305;-33
2023/06/21 04:56:50;;;;;;;45.30;36.10;;;18.90;99.90;;;;;;4959778;28;89696;-35
2023/06/21 04:59:17;;;;;;;40.03;35.63;;;19.00;99.90;;;;;;4960062;28;90098;-39
2023/06/21 05:01:43;;;;;;;46.05;34.00;;;19.20;99.90;;;;;;4958832;28;87749;-35
2023/06/21 05:04:09;;;;;;;43.90;36.95;;;19.20;99.90;;;;;;4959593;28;89723;-38
2023/06/21 05:06:35;;;;;;;41.35;36.28;;;19.20;99.90;;;;;;4945542;28;90035;-34
2023/06/21 05:09:00;;;;;;;44.72;36.50;;;19.10;99.90;;;;;;4959867;28;90658;-36
2023/06/21 05:11:26;;;;;;;46.25;37.58;;;19.10;99.90;;;;;;4959692;28;89033;-35
2023/06/21 05:13:51;;;;;;;39.88;33.80;;;19.10;99.90;;;;;;4959107;28;90056;-36
2023/06/21 05:16:17;;;;;;;43.83;36.58;;;19.20;99.90;;;;;;4959383;28;90047;-36
2023/06/21 05:18:43;;;;;;;47.67;37.67;;;19.10;99.90;;;;;;4960056;28;89880;-35
2023/06/21 05:21:09;;;;;;;42.55;34.88;;;19.20;99.90;;;;;;4959936;28;90444;-33
2023/06/21 05:23:35;;;;;;;44.78;37.60;;;19.20;99.90;;;;;;4959841;28;90553;-37
2023/06/21 05:26:00;;;;;;;49.72;37.33;;;19.20;99.90;;;;;;4958911;28;89233;-40
2023/06/21 05:28:26;;;;;;;44.63;36.05;;;19.20;99.90;;;;;;4959404;28;89603;-34
2023/06/21 05:30:51;;;;;;;48.90;38.83;;;19.20;99.90;;;;;;4959138;28;90447;-35
2023/06/21 05:33:17;;;;;;;46.65;37.60;;;19.20;99.90;;;;;;4958809;28;91408;-34
2023/06/21 05:35:42;;;;;;;48.30;39.13;;;19.20;99.90;;;;;;4958890;28;88978;-36
2023/06/21 05:38:09;;;;;;;51.42;38.83;;;19.10;99.90;;;;;;4959862;28;88277;-34
2023/06/21 05:40:35;;;;;;;48.50;39.67;;;19.10;99.90;;;;;;4958739;28;90054;-34
2023/06/21 05:43:05;;;;;;;48.08;38.05;;;19.20;99.90;;;;;;4959026;28;91100;-34
2023/06/21 05:45:31;;;;;;;50.78;41.03;;;19.20;99.90;;;;;;4958444;28;91448;-33
2023/06/21 05:48:00;;;;;;;53.83;41.05;;;19.30;99.90;;;;;;4959888;28;89713;-36
2023/06/21 05:50:30;;;;;;;50.25;41.13;;;19.30;99.90;;;;;;4959434;28;89399;-36
2023/06/21 05:52:59;;;;;;;49.55;39.75;;;19.40;99.90;;;;;;4959730;28;90368;-37
2023/06/21 05:55:24;;;;;;;47.00;37.55;;;19.40;99.90;;;;;;4958492;28;91662;-34
2023/06/21 05:57:50;;;;;;;50.28;40.30;;;19.50;99.90;;;;;;4958770;28;90373;-35
2023/06/21 06:00:17;;;;;;;47.25;39.92;;;19.60;99.90;;;;;;4958615;28;89019;-38
2023/06/21 06:02:44;;;;;;;49.33;39.50;;;19.60;99.90;;;;;;4959059;28;90377;-44
2023/06/21 06:05:10;;;;;;;44.60;36.22;;;19.70;99.90;;;;;;4958266;28;90082;-34
2023/06/21 06:07:36;;;;;;;50.38;40.97;;;19.80;99.90;;;;;;4957561;28;89707;-36
2023/06/21 06:10:02;;;;;;;46.70;39.15;;;20.10;99.90;;;;;;4941833;28;89894;-34
2023/06/21 06:12:27;;;;;;;43.33;35.13;;;20.30;99.90;;;;;;4958882;28;90326;-35
2023/06/21 06:14:53;;;;;;;40.33;34.47;;;20.50;99.90;;;;;;4958952;28;90232;-37
2023/06/21 06:17:19;;;;;;;44.58;36.53;;;20.80;99.90;;;;;;4958704;28;89671;-37
2023/06/21 06:19:44;;;;;;;46.45;37.05;;;20.80;99.90;;;;;;4958854;28;90243;-34
2023/06/21 06:22:11;;;;;;;40.83;33.97;;;20.80;99.90;;;;;;4957775;28;90562;-34
2023/06/21 06:24:37;;;;;;;44.85;34.58;;;21.10;99.90;;;;;;4958535;28;90238;-35
2023/06/21 06:27:02;;;;;;;37.30;31.55;;;21.30;99.90;;;;;;4941169;28;89733;-37
2023/06/21 06:29:28;;;;;;;43.75;34.03;;;21.60;99.90;;;;;;4957873;28;87770;-37
2023/06/21 06:31:54;;;;;;;38.15;31.30;;;21.80;99.90;;;;;;4958563;28;91447;-35
2023/06/21 06:34:20;;;;;;;33.20;29.48;;;21.60;99.90;;;;;;4958557;28;89431;-33
2023/06/21 06:36:45;;;;;;;30.48;27.33;;;21.80;99.90;;;;;;4958041;28;89633;-38
2023/06/21 06:39:12;;;;;;;31.50;27.58;;;21.90;99.90;;;;;;4958573;28;87940;-32
2023/06/21 06:41:37;;;;;;;32.03;28.63;;;22.20;99.90;;;;;;4957928;28;90252;-36
2023/06/21 06:44:04;;;;;;;35.17;31.38;;;22.30;99.90;;;;;;4958717;28;90984;-34
2023/06/21 06:46:29;;;;;;;32.65;28.77;;;21.90;99.90;;;;;;4957963;28;90197;-36
2023/06/21 06:48:55;;;;;;;33.70;28.38;;;22.00;99.90;;;;;;4958059;28;89337;-37
2023/06/21 06:51:21;;;;;;;31.75;28.35;;;21.80;99.90;;;;;;4957830;28;90178;-33
2023/06/21 06:53:48;;;;;;;33.10;29.50;;;22.10;99.90;;;;;;4957808;28;89813;-34
2023/06/21 06:56:13;;;;;;;32.42;28.40;;;22.20;99.90;;;;;;4939703;28;89526;-37
2023/06/21 06:58:39;;;;;;;44.22;31.42;;;22.20;99.90;;;;;;4958543;28;88521;-32
2023/06/21 07:01:05;;;;;;;39.75;29.38;;;22.20;99.90;;;;;;4957250;28;89915;-34
2023/06/21 07:03:32;;;;;;;34.40;29.70;;;22.20;99.90;;;;;;4958119;28;89278;-32
2023/06/21 07:05:58;;;;;;;28.75;25.63;;;22.20;99.90;;;;;;4958041;28;88838;-33
2023/06/21 07:08:24;;;;;;;32.00;27.75;;;22.50;99.90;;;;;;4957548;28;89327;-38
2023/06/21 07:10:49;;;;;;;32.88;26.80;;;22.10;99.90;;;;;;4958576;28;88823;-32
2023/06/21 07:13:16;;;;;;;27.90;24.85;;;22.50;99.90;;;;;;4954899;28;89445;-32
2023/06/21 07:15:42;;;;;;;29.73;25.38;;;22.30;99.90;;;;;;4955650;28;91018;-38
2023/06/21 07:18:07;;;;;;;26.92;24.13;;;22.40;99.90;;;;;;4955480;28;88789;-33
2023/06/21 07:20:34;;;;;;;27.83;24.25;;;22.90;99.90;;;;;;4955537;28;90128;-36
2023/06/21 07:23:00;;;;;;;25.98;22.63;;;22.80;99.90;;;;;;4956899;28;89730;-34
2023/06/21 07:25:25;;;;;;;29.10;25.65;;;23.20;99.90;;;;;;4955140;28;90403;-32
2023/06/21 07:27:51;;;;;;;27.40;24.35;;;23.50;99.90;;;;;;4937915;28;89934;-38
2023/06/21 07:30:17;;;;;;;28.27;24.50;;;23.30;99.90;;;;;;4955270;28;90143;-33
2023/06/21 07:32:43;;;;;;;25.38;22.65;;;23.10;99.90;;;;;;4954783;28;90684;-32
2023/06/21 07:35:09;;;;;;;31.10;26.52;;;23.40;99.90;;;;;;4955109;28;91030;-34
2023/06/21 07:37:35;;;;;;;24.75;22.17;;;22.90;99.90;;;;;;4955479;28;90701;-35
2023/06/21 07:40:01;;;;;;;26.85;22.60;;;23.10;99.90;;;;;;4954315;28;90388;-36
2023/06/21 07:42:27;;;;;;;23.48;20.90;;;23.00;99.90;;;;;;4955852;28;89846;-35
2023/06/21 07:44:54;;;;;;;25.00;22.30;;;23.50;99.90;;;;;;4969958;28;89756;-34
2023/06/21 07:47:20;;;;;;;23.88;21.40;;;24.00;99.90;;;;;;4954145;28;88270;-37
2023/06/21 07:49:45;;;;;;;24.70;21.30;;;24.00;99.90;;;;;;4931419;28;91594;-35
2023/06/21 07:52:11;;;;;;;25.52;22.05;;;23.90;99.90;;;;;;4954648;28;89783;-39
2023/06/21 07:54:37;;;;;;;24.60;22.00;;;23.70;99.90;;;;;;4955110;28;90060;-33
2023/06/21 07:57:03;;;;;;;23.52;21.05;;;23.90;99.90;;;;;;4953969;28;89908;-36
2023/06/21 07:59:30;;;;;;;19.92;17.83;;;24.30;99.90;;;;;;4954666;28;90074;-33
2023/06/21 08:01:55;;;;;;;19.90;17.77;;;24.40;99.90;;;;;;4937932;28;91860;-32
2023/06/21 08:04:21;;;;;;;21.85;18.45;;;24.20;99.90;;;;;;4957231;28;89644;-35
2023/06/21 08:06:46;;;;;;;23.70;21.38;;;24.50;99.90;;;;;;4957972;28;88606;-37
2023/06/21 08:09:12;;;;;;;21.00;17.13;;;24.40;99.90;;;;;;4958465;28;90293;-33
2023/06/21 08:11:38;;;;;;;18.50;16.08;;;24.80;99.90;;;;;;4958829;28;89698;-33
2023/06/21 08:14:03;;;;;;;19.17;17.27;;;25.00;99.90;;;;;;4958355;28;90813;-35
2023/06/21 08:16:29;;;;;;;19.85;14.70;;;24.70;99.90;;;;;;4958043;28;88149;-33
2023/06/21 08:18:55;;;;;;;17.08;13.73;;;24.90;99.90;;;;;;4958684;28;89411;-33
2023/06/21 08:21:20;;;;;;;12.50;11.23;;;24.90;99.90;;;;;;4957019;28;91419;-33
2023/06/21 08:23:46;;;;;;;13.25;10.75;;;25.30;99.90;;;;;;4958386;28;90336;-37
2023/06/21 08:26:11;;;;;;;15.70;11.20;;;25.50;99.90;;;;;;4957391;28;88713;-37
2023/06/21 08:28:37;;;;;;;11.00;10.00;;;25.30;99.90;;;;;;4958455;28;90323;-33
2023/06/21 08:31:03;;;;;;;12.02;10.77;;;25.30;99.90;;;;;;4958000;28;91041;-33
2023/06/21 08:33:28;;;;;;;9.70;8.20;;;25.00;99.90;;;;;;4957828;28;89740;-33
2023/06/21 08:35:54;;;;;;;9.27;8.38;;;25.40;99.90;;;;;;4959063;28;88652;-34
2023/06/21 08:38:19;;;;;;;11.98;9.98;;;25.20;99.90;;;;;;4958366;28;90608;-35
2023/06/21 08:40:46;;;;;;;12.85;10.77;;;25.20;99.90;;;;;;4958172;28;89497;-34
2023/06/21 08:43:11;;;;;;;13.13;9.80;;;25.30;99.90;;;;;;4957540;28;90237;-34
2023/06/21 08:45:37;;;;;;;8.80;7.80;;;25.10;99.90;;;;;;4957362;28;90299;-36
2023/06/21 08:48:06;;;;;;;10.43;7.80;;;25.10;99.90;;;;;;4953344;28;91678;-34
2023/06/21 08:50:34;;;;;;;8.00;7.00;;;25.40;99.90;;;;;;4957844;28;90901;-36
2023/06/21 08:53:05;;;;;;;8.35;7.38;;;25.60;99.90;;;;;;4957232;28;89142;-34
2023/06/21 08:55:35;;;;;;;9.07;6.88;;;25.70;99.90;;;;;;4957912;28;87759;-35
2023/06/21 08:58:05;;;;;;;10.02;6.75;;;25.60;99.90;;;;;;4955555;28;90582;-36
2023/06/21 09:00:34;;;;;;;7.65;6.95;;;25.70;99.90;;;;;;4953957;28;90532;-34
2023/06/21 09:03:12;;;;;;;8.10;7.40;;;25.60;99.90;;;;;;4957492;28;91965;-37
2023/06/21 09:05:52;;;;;;;8.82;6.65;;;25.80;99.90;;;;;;4957521;28;89956;-35
2023/06/21 09:08:19;;;;;;;8.05;7.10;;;25.60;99.90;;;;;;4957209;28;89867;-31
2023/06/21 09:10:48;;;;;;;5.55;5.05;;;25.40;99.90;;;;;;4956713;28;91279;-32
2023/06/21 09:13:14;;;;;;;8.48;6.72;;;25.60;99.90;;;;;;4956902;28;90494;-34
2023/06/21 09:15:41;;;;;;;10.48;7.90;;;25.50;99.90;;;;;;4955941;28;89093;-34
2023/06/21 09:18:07;;;;;;;7.80;7.05;;;24.90;99.90;;;;;;4939125;28;90886;-37
2023/06/21 09:20:33;;;;;;;9.68;7.28;;;25.20;99.90;;;;;;4957343;28;88818;-35
2023/06/21 09:22:59;;;;;;;7.82;6.63;;;25.10;99.90;;;;;;4958067;28;89659;-34
2023/06/21 09:25:26;;;;;;;7.15;6.07;;;25.50;99.90;;;;;;4957093;28;90419;-33
2023/06/21 09:27:53;;;;;;;8.57;6.20;;;25.30;99.90;;;;;;4957142;28;90452;-37
2023/06/21 09:30:20;;;;;;;5.35;4.82;;;25.90;99.90;;;;;;4957641;28;89416;-34
2023/06/21 09:32:46;;;;;;;7.97;7.22;;;26.30;99.90;;;;;;4957406;28;91554;-33
2023/06/21 09:35:13;;;;;;;8.05;7.18;;;26.30;99.90;;;;;;4956732;28;90015;-37
2023/06/21 09:37:39;;;;;;;7.22;5.13;;;26.30;99.90;;;;;;4939839;28;92978;-35
2023/06/21 09:40:05;;;;;;;6.50;5.88;;;26.40;99.90;;;;;;4957125;28;91279;-33
2023/06/21 09:42:36;;;;;;;6.63;5.90;;;26.40;99.90;;;;;;4957157;28;90912;-40
2023/06/21 09:45:02;;;;;;;6.07;5.47;;;25.70;99.90;;;;;;4957375;28;88195;-35
2023/06/21 09:47:30;;;;;;;7.95;7.15;;;25.80;99.90;;;;;;4956927;28;89869;-38
2023/06/21 09:49:56;;;;;;;6.53;5.93;;;25.60;99.90;;;;;;4945994;28;89560;-33
2023/06/21 09:52:22;;;;;;;8.30;6.03;;;25.60;99.90;;;;;;4957009;28;89441;-35
2023/06/21 09:54:48;;;;;;;5.95;5.25;;;25.60;99.90;;;;;;4957684;28;90254;-32
2023/06/21 09:57:15;;;;;;;6.75;5.85;;;25.70;99.90;;;;;;4956994;28;89213;-32
2023/06/21 09:59:40;;;;;;;7.90;5.25;;;25.60;99.90;;;;;;4943695;28;91261;-35
2023/06/21 10:02:07;;;;;;;7.82;7.13;;;25.50;99.90;;;;;;4955420;28;90981;-36
2023/06/21 10:04:43;;;;;;;8.82;5.00;;;25.60;99.90;;;;;;4956461;28;88986;-43
2023/06/21 10:07:12;;;;;;;8.65;5.65;;;25.80;99.90;;;;;;4956446;28;89259;-37
2023/06/21 10:09:38;;;;;;;11.55;5.68;;;25.60;99.90;;;;;;4956354;28;89370;-38
2023/06/21 10:12:05;;;;;;;8.13;5.88;;;25.30;99.90;;;;;;4957560;28;90072;-37
2023/06/21 10:14:31;;;;;;;5.20;4.73;;;24.90;99.90;;;;;;4922807;28;89581;-32
2023/06/21 10:16:57;;;;;;;6.07;5.55;;;25.40;99.90;;;;;;4955950;28;90845;-34
2023/06/21 10:19:25;;;;;;;7.75;5.38;;;25.40;99.90;;;;;;4956874;28;89943;-33
2023/06/21 10:21:57;;;;;;;5.30;4.13;;;25.50;99.90;;;;;;4956273;28;89479;-34
2023/06/21 10:24:25;;;;;;;5.32;4.05;;;25.60;99.90;;;;;;4956976;28;90348;-32
2023/06/21 10:26:53;;;;;;;5.20;4.20;;;26.00;99.90;;;;;;4957658;28;89656;-36
2023/06/21 10:29:20;;;;;;;3.65;3.35;;;26.10;99.90;;;;;;4956400;28;89663;-31
2023/06/21 10:31:49;;;;;;;5.70;4.37;;;26.20;99.90;;;;;;4957084;28;89554;-38
2023/06/21 10:34:19;;;;;;;9.32;4.35;;;26.30;99.90;;;;;;4957238;28;88505;-34
2023/06/21 10:36:49;;;;;;;4.05;3.70;;;25.80;99.90;;;;;;4956058;28;90944;-34
2023/06/21 10:39:16;;;;;;;4.45;3.40;;;25.80;99.90;;;;;;4956213;28;88802;-34
2023/06/21 10:41:43;;;;;;;4.85;3.92;;;25.90;99.90;;;;;;4956683;28;89801;-36
2023/06/21 10:44:10;;;;;;;5.70;4.80;;;26.20;99.90;;;;;;4956293;28;89346;-36
2023/06/21 10:46:37;;;;;;;6.03;4.90;;;25.90;99.90;;;;;;4956043;28;90672;-35
2023/06/21 10:49:03;;;;;;;5.45;4.93;;;26.40;99.90;;;;;;4956141;28;90185;-35
2023/06/21 10:51:32;;;;;;;4.10;3.67;;;26.20;99.90;;;;;;4956305;28;90482;-33
2023/06/21 10:54:00;;;;;;;4.18;3.83;;;25.90;99.90;;;;;;4956440;28;87850;-32
2023/06/21 10:56:32;;;;;;;4.32;2.97;;;25.70;99.90;;;;;;4955715;28;90204;-34
2023/06/21 10:58:58;;;;;;;3.15;2.85;;;25.90;99.90;;;;;;4956995;28;89582;-35
2023/06/21 11:01:25;;;;;;;3.35;2.90;;;26.20;99.90;;;;;;4956042;28;89307;-33
2023/06/21 11:03:51;;;;;;;3.95;3.65;;;26.10;99.90;;;;;;4956689;28;89051;-36
2023/06/21 11:06:28;;;;;;;5.10;4.03;;;26.00;99.90;;;;;;4956031;28;90770;-34
2023/06/21 11:09:05;;;;;;;4.13;3.58;;;25.70;99.90;;;;;;4955804;28;88485;-33
2023/06/21 11:11:39;;;;;;;3.53;3.28;;;25.90;99.90;;;;;;4955800;28;89144;-35
2023/06/21 11:14:06;;;;;;;4.47;3.55;;;26.10;99.90;;;;;;4956071;28;90356;-33
2023/06/21 11:16:35;;;;;;;8.68;5.93;;;26.20;99.90;;;;;;4970329;28;91977;-35
2023/06/21 11:19:07;;;;;;;4.10;3.40;;;25.70;99.90;;;;;;4955625;28;90310;-33
2023/06/21 11:21:45;;;;;;;3.40;3.10;;;25.60;99.90;;;;;;4955996;28;89560;-34
2023/06/21 11:24:16;;;;;;;5.35;3.08;;;25.60;99.90;;;;;;4955530;28;88300;-35
2023/06/21 11:27:02;;;;;;;2.97;2.78;;;25.60;99.90;;;;;;4955982;28;90200;-33
2023/06/21 11:29:59;;;;;;;3.53;3.30;;;25.60;99.90;;;;;;4943110;28;89530;-32
2023/06/21 11:32:29;;;;;;;4.20;2.83;;;25.50;99.90;;;;;;4952341;28;88530;-33
2023/06/21 11:34:59;;;;;;;2.90;2.53;;;25.80;99.90;;;;;;4955848;28;88500;-36
2023/06/21 11:37:39;;;;;;;4.60;4.20;;;25.90;99.90;;;;;;4956405;28;89768;-35
2023/06/21 11:40:10;;;;;;;4.20;3.47;;;25.60;99.90;;;;;;4956628;28;89416;-35
2023/06/21 11:42:45;;;;;;;3.80;3.13;;;25.50;99.90;;;;;;4942216;28;89322;-35
2023/06/21 11:45:35;;;;;;;5.13;3.80;;;25.70;99.90;;;;;;4958199;28;88774;-33
2023/06/21 11:48:05;;;;;;;3.42;2.72;;;25.90;99.90;;;;;;4959265;28;90245;-36
2023/06/21 11:50:45;;;;;;;3.40;3.10;;;25.80;99.90;;;;;;4958753;28;90313;-34
2023/06/21 11:53:28;;;;;;;3.30;2.83;;;26.10;99.90;;;;;;4959319;28;89315;-36
2023/06/21 11:56:01;;;;;;;3.97;3.67;;;26.20;99.90;;;;;;4959563;28;89532;-33
2023/06/21 11:58:28;;;;;;;4.93;4.53;;;26.10;99.90;;;;;;4958733;28;91001;-34
2023/06/21 12:00:54;;;;;;;3.75;2.92;;;26.00;99.90;;;;;;4959417;28;90048;-35
2023/06/21 12:03:22;;;;;;;4.00;3.17;;;26.10;99.90;;;;;;4959521;28;90682;-35
2023/06/21 12:05:55;;;;;;;;;;;26.10;93.40;;;;;;4960237;28;90112;-35
2023/06/21 12:08:31;;;;;;;3.50;3.20;;;25.90;97.80;;;;;;4960444;28;91236;-34
2023/06/21 12:11:05;;;;;;;3.92;2.88;;;26.00;96.20;;;;;;4958727;28;90029;-34
2023/06/21 12:13:33;;;;;;;2.58;2.38;;;26.10;93.50;;;;;;4959052;28;89872;-37
2023/06/21 12:16:00;;;;;;;3.42;2.97;;;26.30;92.20;;;;;;4958996;28;90011;-35
2023/06/21 12:18:27;;;;;;;3.67;3.38;;;26.50;97.80;;;;;;4958458;28;89952;-33
2023/06/21 12:20:54;;;;;;;4.07;3.33;;;26.40;91.70;;;;;;4957805;28;90886;-36
2023/06/21 12:23:21;;;;;;;3.92;3.63;;;26.20;91.70;;;;;;4940884;28;89767;-36
2023/06/21 12:25:55;;;;;;;5.10;3.13;;;26.00;97.10;;;;;;4958871;28;88048;-32
2023/06/21 12:28:22;;;;;;;3.85;2.90;;;25.90;99.80;;;;;;4957833;28;89138;-33
2023/06/21 12:30:48;;;;;;;3.35;3.15;;;26.10;99.90;;;;;;4958269;28;90678;-34
2023/06/21 12:33:15;;;;;;;4.40;3.55;;;25.90;99.90;;;;;;4957079;28;90051;-33
2023/06/21 12:35:44;;;;;;;3.37;3.17;;;25.60;99.90;;;;;;4958116;28;90249;-35
2023/06/21 12:38:17;;;;;;;8.52;3.95;;;25.90;99.90;;;;;;4957623;28;90519;-34